Euclid, Ohio
Current Conditions -  °F | °C
As of 6:45 PM on Friday 21 Nov 2014 (Local Time) from KCGF Reporting Station
Clear Clear  
Wind Chill: 14°   Ceiling: Unl
Heat Index: 21°   Visibility: 10mi
Dew Point: 10°   Wind: 6mph
Humidity: 63%   Direction: 170°S
Pressure: 30.46"   Gusts: NA
Location:  41.6°N, 81.53°W
Report Text: KCGF 212345Z 17005KT 10SM SKC M06/M12 A3046
Loading
Personal Weather Stations






























Interactive Weather Map New forecast layout! Learn more

10-Day Weather Forecast

Advertisements
Track Severe Weather on mobile